<?xml version="1.0" encoding="UTF-8" standalone="no" ?>
<gpx xmlns="http://www.topografix.com/GPX/1/1" xmlns:xsi="http://www.w3.org/2001/XMLSchema-instance" xsi:schemaLocation="http://www.topografix.com/GPX/1/1 http://www.topografix.com/GPX/1/1/gpx.xsd" version="1.1" creator="VisuGPX - https://www.visugpx.com">
  <metadata>
    <name>VTT sant guilhem le desert 25 Avril 2011</name>
    <desc><![CDATA[VTT sant guilhem le desert 25 Avril 2011]]></desc>
  </metadata>
  <trk>
    <name><![CDATA[Trk1345]]></name>
    <trkseg>
      <trkpt lat="43.7345" lon="3.54767">
        <ele>80</ele>
        <time>2011-04-25T10:54:33Z</time>
      </trkpt>
      <trkpt lat="43.73438" lon="3.5477">
        <ele>100</ele>
        <time>2011-04-25T10:57:06Z</time>
      </trkpt>
      <trkpt lat="43.73422" lon="3.54763">
        <ele>105</ele>
        <time>2011-04-25T11:00:48Z</time>
      </trkpt>
      <trkpt lat="43.73433" lon="3.54773">
        <ele>101</ele>
        <time>2011-04-25T11:01:52Z</time>
      </trkpt>
      <trkpt lat="43.73403" lon="3.54773">
        <ele>98</ele>
        <time>2011-04-25T11:03:38Z</time>
      </trkpt>
      <trkpt lat="43.73385" lon="3.54808">
        <ele>96</ele>
        <time>2011-04-25T11:03:48Z</time>
      </trkpt>
      <trkpt lat="43.73373" lon="3.54825">
        <ele>97</ele>
        <time>2011-04-25T11:04:09Z</time>
      </trkpt>
      <trkpt lat="43.73392" lon="3.54862">
        <ele>92</ele>
        <time>2011-04-25T11:04:26Z</time>
      </trkpt>
      <trkpt lat="43.73417" lon="3.54868">
        <ele>93</ele>
        <time>2011-04-25T11:04:36Z</time>
      </trkpt>
      <trkpt lat="43.73442" lon="3.54843">
        <ele>109</ele>
        <time>2011-04-25T11:04:49Z</time>
      </trkpt>
      <trkpt lat="43.73473" lon="3.54813">
        <ele>105</ele>
        <time>2011-04-25T11:05:02Z</time>
      </trkpt>
      <trkpt lat="43.735" lon="3.54797">
        <ele>105</ele>
        <time>2011-04-25T11:05:20Z</time>
      </trkpt>
      <trkpt lat="43.7352" lon="3.54805">
        <ele>107</ele>
        <time>2011-04-25T11:05:40Z</time>
      </trkpt>
      <trkpt lat="43.73533" lon="3.54825">
        <ele>111</ele>
        <time>2011-04-25T11:06:00Z</time>
      </trkpt>
      <trkpt lat="43.73568" lon="3.5485">
        <ele>116</ele>
        <time>2011-04-25T11:06:47Z</time>
      </trkpt>
      <trkpt lat="43.73592" lon="3.54837">
        <ele>115</ele>
        <time>2011-04-25T11:07:15Z</time>
      </trkpt>
      <trkpt lat="43.7358" lon="3.54865">
        <ele>116</ele>
        <time>2011-04-25T11:07:39Z</time>
      </trkpt>
      <trkpt lat="43.73567" lon="3.54882">
        <ele>118</ele>
        <time>2011-04-25T11:07:58Z</time>
      </trkpt>
      <trkpt lat="43.73593" lon="3.54872">
        <ele>121</ele>
        <time>2011-04-25T11:08:25Z</time>
      </trkpt>
      <trkpt lat="43.7361" lon="3.54878">
        <ele>123</ele>
        <time>2011-04-25T11:08:40Z</time>
      </trkpt>
      <trkpt lat="43.73625" lon="3.54898">
        <ele>126</ele>
        <time>2011-04-25T11:08:58Z</time>
      </trkpt>
      <trkpt lat="43.73648" lon="3.54905">
        <ele>127</ele>
        <time>2011-04-25T11:09:18Z</time>
      </trkpt>
      <trkpt lat="43.73675" lon="3.54892">
        <ele>132</ele>
        <time>2011-04-25T11:09:56Z</time>
      </trkpt>
      <trkpt lat="43.73695" lon="3.54888">
        <ele>134</ele>
        <time>2011-04-25T11:10:17Z</time>
      </trkpt>
      <trkpt lat="43.73708" lon="3.5488">
        <ele>141</ele>
        <time>2011-04-25T11:10:33Z</time>
      </trkpt>
      <trkpt lat="43.7372" lon="3.54857">
        <ele>149</ele>
        <time>2011-04-25T11:10:57Z</time>
      </trkpt>
      <trkpt lat="43.73732" lon="3.5485">
        <ele>158</ele>
        <time>2011-04-25T11:11:56Z</time>
      </trkpt>
      <trkpt lat="43.73755" lon="3.54832">
        <ele>160</ele>
        <time>2011-04-25T11:12:26Z</time>
      </trkpt>
      <trkpt lat="43.73775" lon="3.5481">
        <ele>159</ele>
        <time>2011-04-25T11:12:45Z</time>
      </trkpt>
      <trkpt lat="43.73775" lon="3.5477">
        <ele>166</ele>
        <time>2011-04-25T11:13:06Z</time>
      </trkpt>
      <trkpt lat="43.73775" lon="3.54753">
        <ele>171</ele>
        <time>2011-04-25T11:13:27Z</time>
      </trkpt>
      <trkpt lat="43.73792" lon="3.54795">
        <ele>181</ele>
        <time>2011-04-25T11:14:07Z</time>
      </trkpt>
      <trkpt lat="43.7379" lon="3.54827">
        <ele>187</ele>
        <time>2011-04-25T11:14:32Z</time>
      </trkpt>
      <trkpt lat="43.73782" lon="3.5485">
        <ele>188</ele>
        <time>2011-04-25T11:14:53Z</time>
      </trkpt>
      <trkpt lat="43.73772" lon="3.54885">
        <ele>188</ele>
        <time>2011-04-25T11:15:26Z</time>
      </trkpt>
      <trkpt lat="43.73787" lon="3.54872">
        <ele>192</ele>
        <time>2011-04-25T11:16:16Z</time>
      </trkpt>
      <trkpt lat="43.7379" lon="3.5489">
        <ele>199</ele>
        <time>2011-04-25T11:16:55Z</time>
      </trkpt>
      <trkpt lat="43.73822" lon="3.54875">
        <ele>204</ele>
        <time>2011-04-25T11:17:50Z</time>
      </trkpt>
      <trkpt lat="43.73843" lon="3.54837">
        <ele>210</ele>
        <time>2011-04-25T11:18:34Z</time>
      </trkpt>
      <trkpt lat="43.73865" lon="3.548">
        <ele>217</ele>
        <time>2011-04-25T11:19:08Z</time>
      </trkpt>
      <trkpt lat="43.73887" lon="3.54773">
        <ele>219</ele>
        <time>2011-04-25T11:19:33Z</time>
      </trkpt>
      <trkpt lat="43.73903" lon="3.5475">
        <ele>224</ele>
        <time>2011-04-25T11:19:56Z</time>
      </trkpt>
      <trkpt lat="43.73933" lon="3.547">
        <ele>222</ele>
        <time>2011-04-25T11:20:21Z</time>
      </trkpt>
      <trkpt lat="43.73967" lon="3.54658">
        <ele>225</ele>
        <time>2011-04-25T11:20:42Z</time>
      </trkpt>
      <trkpt lat="43.74007" lon="3.54607">
        <ele>219</ele>
        <time>2011-04-25T11:21:18Z</time>
      </trkpt>
      <trkpt lat="43.7402" lon="3.54587">
        <ele>220</ele>
        <time>2011-04-25T11:21:30Z</time>
      </trkpt>
      <trkpt lat="43.74025" lon="3.54558">
        <ele>223</ele>
        <time>2011-04-25T11:21:42Z</time>
      </trkpt>
      <trkpt lat="43.74025" lon="3.54523">
        <ele>225</ele>
        <time>2011-04-25T11:21:56Z</time>
      </trkpt>
      <trkpt lat="43.7403" lon="3.54485">
        <ele>224</ele>
        <time>2011-04-25T11:22:09Z</time>
      </trkpt>
      <trkpt lat="43.74052" lon="3.5446">
        <ele>225</ele>
        <time>2011-04-25T11:22:17Z</time>
      </trkpt>
      <trkpt lat="43.74075" lon="3.54455">
        <ele>227</ele>
        <time>2011-04-25T11:22:24Z</time>
      </trkpt>
      <trkpt lat="43.74083" lon="3.54407">
        <ele>228</ele>
        <time>2011-04-25T11:23:12Z</time>
      </trkpt>
      <trkpt lat="43.74088" lon="3.54362">
        <ele>228</ele>
        <time>2011-04-25T11:23:14Z</time>
      </trkpt>
      <trkpt lat="43.74107" lon="3.54363">
        <ele>247</ele>
        <time>2011-04-25T11:23:23Z</time>
      </trkpt>
      <trkpt lat="43.74118" lon="3.54338">
        <ele>253</ele>
        <time>2011-04-25T11:23:51Z</time>
      </trkpt>
      <trkpt lat="43.74122" lon="3.54318">
        <ele>251</ele>
        <time>2011-04-25T11:24:30Z</time>
      </trkpt>
      <trkpt lat="43.74128" lon="3.54338">
        <ele>253</ele>
        <time>2011-04-25T11:24:48Z</time>
      </trkpt>
      <trkpt lat="43.74142" lon="3.54318">
        <ele>254</ele>
        <time>2011-04-25T11:25:14Z</time>
      </trkpt>
      <trkpt lat="43.74148" lon="3.54345">
        <ele>263</ele>
        <time>2011-04-25T11:25:45Z</time>
      </trkpt>
      <trkpt lat="43.74167" lon="3.54323">
        <ele>265</ele>
        <time>2011-04-25T11:26:11Z</time>
      </trkpt>
      <trkpt lat="43.74182" lon="3.54302">
        <ele>266</ele>
        <time>2011-04-25T11:26:27Z</time>
      </trkpt>
      <trkpt lat="43.74188" lon="3.54323">
        <ele>271</ele>
        <time>2011-04-25T11:26:40Z</time>
      </trkpt>
      <trkpt lat="43.7419" lon="3.54353">
        <ele>273</ele>
        <time>2011-04-25T11:26:55Z</time>
      </trkpt>
      <trkpt lat="43.74197" lon="3.54382">
        <ele>278</ele>
        <time>2011-04-25T11:27:19Z</time>
      </trkpt>
      <trkpt lat="43.742" lon="3.54403">
        <ele>280</ele>
        <time>2011-04-25T11:27:36Z</time>
      </trkpt>
      <trkpt lat="43.74192" lon="3.54427">
        <ele>280</ele>
        <time>2011-04-25T11:27:52Z</time>
      </trkpt>
      <trkpt lat="43.7421" lon="3.5441">
        <ele>283</ele>
        <time>2011-04-25T11:28:18Z</time>
      </trkpt>
      <trkpt lat="43.74227" lon="3.54382">
        <ele>285</ele>
        <time>2011-04-25T11:28:37Z</time>
      </trkpt>
      <trkpt lat="43.74237" lon="3.54353">
        <ele>288</ele>
        <time>2011-04-25T11:29:00Z</time>
      </trkpt>
      <trkpt lat="43.74243" lon="3.54337">
        <ele>291</ele>
        <time>2011-04-25T11:29:21Z</time>
      </trkpt>
      <trkpt lat="43.74253" lon="3.54315">
        <ele>294</ele>
        <time>2011-04-25T11:29:41Z</time>
      </trkpt>
      <trkpt lat="43.74282" lon="3.54267">
        <ele>301</ele>
        <time>2011-04-25T11:30:31Z</time>
      </trkpt>
      <trkpt lat="43.74302" lon="3.54243">
        <ele>307</ele>
        <time>2011-04-25T11:31:01Z</time>
      </trkpt>
      <trkpt lat="43.74323" lon="3.54232">
        <ele>309</ele>
        <time>2011-04-25T11:31:28Z</time>
      </trkpt>
      <trkpt lat="43.7435" lon="3.54202">
        <ele>304</ele>
        <time>2011-04-25T11:32:15Z</time>
      </trkpt>
      <trkpt lat="43.74368" lon="3.54198">
        <ele>309</ele>
        <time>2011-04-25T11:32:39Z</time>
      </trkpt>
      <trkpt lat="43.74387" lon="3.542">
        <ele>314</ele>
        <time>2011-04-25T11:32:59Z</time>
      </trkpt>
      <trkpt lat="43.74408" lon="3.54182">
        <ele>317</ele>
        <time>2011-04-25T11:33:26Z</time>
      </trkpt>
      <trkpt lat="43.74433" lon="3.54173">
        <ele>320</ele>
        <time>2011-04-25T11:33:51Z</time>
      </trkpt>
      <trkpt lat="43.74408" lon="3.54178">
        <ele>321</ele>
        <time>2011-04-25T11:35:09Z</time>
      </trkpt>
      <trkpt lat="43.74395" lon="3.54185">
        <ele>320</ele>
        <time>2011-04-25T11:35:23Z</time>
      </trkpt>
      <trkpt lat="43.74408" lon="3.54165">
        <ele>323</ele>
        <time>2011-04-25T11:35:42Z</time>
      </trkpt>
      <trkpt lat="43.744" lon="3.5415">
        <ele>325</ele>
        <time>2011-04-25T11:36:00Z</time>
      </trkpt>
      <trkpt lat="43.74388" lon="3.54137">
        <ele>326</ele>
        <time>2011-04-25T11:36:13Z</time>
      </trkpt>
      <trkpt lat="43.7438" lon="3.54112">
        <ele>327</ele>
        <time>2011-04-25T11:36:31Z</time>
      </trkpt>
      <trkpt lat="43.74393" lon="3.54105">
        <ele>331</ele>
        <time>2011-04-25T11:36:50Z</time>
      </trkpt>
      <trkpt lat="43.7438" lon="3.54088">
        <ele>336</ele>
        <time>2011-04-25T11:37:18Z</time>
      </trkpt>
      <trkpt lat="43.74372" lon="3.54072">
        <ele>338</ele>
        <time>2011-04-25T11:37:36Z</time>
      </trkpt>
      <trkpt lat="43.74338" lon="3.54048">
        <ele>340</ele>
        <time>2011-04-25T11:37:50Z</time>
      </trkpt>
      <trkpt lat="43.7433" lon="3.54012">
        <ele>342</ele>
        <time>2011-04-25T11:38:03Z</time>
      </trkpt>
      <trkpt lat="43.7432" lon="3.5399">
        <ele>345</ele>
        <time>2011-04-25T11:38:17Z</time>
      </trkpt>
      <trkpt lat="43.74313" lon="3.53963">
        <ele>347</ele>
        <time>2011-04-25T11:39:34Z</time>
      </trkpt>
      <trkpt lat="43.74308" lon="3.53945">
        <ele>347</ele>
        <time>2011-04-25T11:40:00Z</time>
      </trkpt>
      <trkpt lat="43.74323" lon="3.53928">
        <ele>344</ele>
        <time>2011-04-25T11:40:23Z</time>
      </trkpt>
      <trkpt lat="43.74347" lon="3.53912">
        <ele>345</ele>
        <time>2011-04-25T11:40:37Z</time>
      </trkpt>
      <trkpt lat="43.74367" lon="3.53885">
        <ele>344</ele>
        <time>2011-04-25T11:40:53Z</time>
      </trkpt>
      <trkpt lat="43.7439" lon="3.53845">
        <ele>346</ele>
        <time>2011-04-25T11:41:13Z</time>
      </trkpt>
      <trkpt lat="43.74412" lon="3.53837">
        <ele>350</ele>
        <time>2011-04-25T11:41:28Z</time>
      </trkpt>
      <trkpt lat="43.74437" lon="3.5382">
        <ele>353</ele>
        <time>2011-04-25T11:41:46Z</time>
      </trkpt>
      <trkpt lat="43.74462" lon="3.538">
        <ele>350</ele>
        <time>2011-04-25T11:42:20Z</time>
      </trkpt>
      <trkpt lat="43.74473" lon="3.53773">
        <ele>349</ele>
        <time>2011-04-25T11:42:36Z</time>
      </trkpt>
      <trkpt lat="43.74458" lon="3.5375">
        <ele>351</ele>
        <time>2011-04-25T11:42:50Z</time>
      </trkpt>
      <trkpt lat="43.74432" lon="3.53732">
        <ele>360</ele>
        <time>2011-04-25T11:43:11Z</time>
      </trkpt>
      <trkpt lat="43.74418" lon="3.53725">
        <ele>362</ele>
        <time>2011-04-25T11:43:23Z</time>
      </trkpt>
      <trkpt lat="43.74407" lon="3.53708">
        <ele>366</ele>
        <time>2011-04-25T11:43:37Z</time>
      </trkpt>
      <trkpt lat="43.744" lon="3.53687">
        <ele>375</ele>
        <time>2011-04-25T11:44:29Z</time>
      </trkpt>
      <trkpt lat="43.7442" lon="3.53697">
        <ele>380</ele>
        <time>2011-04-25T11:44:49Z</time>
      </trkpt>
      <trkpt lat="43.74438" lon="3.53688">
        <ele>382</ele>
        <time>2011-04-25T11:45:03Z</time>
      </trkpt>
      <trkpt lat="43.74455" lon="3.53677">
        <ele>383</ele>
        <time>2011-04-25T11:45:18Z</time>
      </trkpt>
      <trkpt lat="43.74465" lon="3.53662">
        <ele>386</ele>
        <time>2011-04-25T11:45:34Z</time>
      </trkpt>
      <trkpt lat="43.7453" lon="3.536">
        <ele>409</ele>
        <time>2011-04-25T11:46:30Z</time>
      </trkpt>
      <trkpt lat="43.74508" lon="3.53613">
        <ele>408</ele>
        <time>2011-04-25T11:46:47Z</time>
      </trkpt>
      <trkpt lat="43.7446" lon="3.53623">
        <ele>413</ele>
        <time>2011-04-25T11:47:18Z</time>
      </trkpt>
      <trkpt lat="43.74438" lon="3.5362">
        <ele>414</ele>
        <time>2011-04-25T11:47:35Z</time>
      </trkpt>
      <trkpt lat="43.74463" lon="3.53603">
        <ele>416</ele>
        <time>2011-04-25T11:48:01Z</time>
      </trkpt>
      <trkpt lat="43.74518" lon="3.53593">
        <ele>415</ele>
        <time>2011-04-25T11:48:34Z</time>
      </trkpt>
      <trkpt lat="43.74532" lon="3.53565">
        <ele>414</ele>
        <time>2011-04-25T11:49:32Z</time>
      </trkpt>
      <trkpt lat="43.74638" lon="3.53575">
        <ele>414</ele>
        <time>2011-04-25T11:49:34Z</time>
      </trkpt>
      <trkpt lat="43.74547" lon="3.53538">
        <ele>443</ele>
        <time>2011-04-25T11:49:54Z</time>
      </trkpt>
      <trkpt lat="43.74583" lon="3.53505">
        <ele>438</ele>
        <time>2011-04-25T11:50:54Z</time>
      </trkpt>
      <trkpt lat="43.74603" lon="3.53498">
        <ele>427</ele>
        <time>2011-04-25T11:51:15Z</time>
      </trkpt>
      <trkpt lat="43.74617" lon="3.5349">
        <ele>434</ele>
        <time>2011-04-25T11:51:48Z</time>
      </trkpt>
      <trkpt lat="43.74635" lon="3.5351">
        <ele>445</ele>
        <time>2011-04-25T11:52:23Z</time>
      </trkpt>
      <trkpt lat="43.74648" lon="3.53527">
        <ele>449</ele>
        <time>2011-04-25T11:52:56Z</time>
      </trkpt>
      <trkpt lat="43.74667" lon="3.53537">
        <ele>455</ele>
        <time>2011-04-25T11:53:24Z</time>
      </trkpt>
      <trkpt lat="43.74658" lon="3.53515">
        <ele>451</ele>
        <time>2011-04-25T11:54:06Z</time>
      </trkpt>
      <trkpt lat="43.74652" lon="3.53487">
        <ele>458</ele>
        <time>2011-04-25T11:54:50Z</time>
      </trkpt>
      <trkpt lat="43.74673" lon="3.535">
        <ele>466</ele>
        <time>2011-04-25T11:55:23Z</time>
      </trkpt>
      <trkpt lat="43.74673" lon="3.53475">
        <ele>472</ele>
        <time>2011-04-25T11:57:57Z</time>
      </trkpt>
      <trkpt lat="43.7466" lon="3.53463">
        <ele>474</ele>
        <time>2011-04-25T11:58:08Z</time>
      </trkpt>
      <trkpt lat="43.7466" lon="3.53417">
        <ele>475</ele>
        <time>2011-04-25T11:58:31Z</time>
      </trkpt>
      <trkpt lat="43.74658" lon="3.53398">
        <ele>475</ele>
        <time>2011-04-25T11:58:46Z</time>
      </trkpt>
      <trkpt lat="43.74655" lon="3.53333">
        <ele>476</ele>
        <time>2011-04-25T11:59:32Z</time>
      </trkpt>
      <trkpt lat="43.74655" lon="3.53313">
        <ele>470</ele>
        <time>2011-04-25T11:59:50Z</time>
      </trkpt>
      <trkpt lat="43.74687" lon="3.53315">
        <ele>470</ele>
        <time>2011-04-25T12:00:04Z</time>
      </trkpt>
      <trkpt lat="43.74717" lon="3.53297">
        <ele>470</ele>
        <time>2011-04-25T12:00:12Z</time>
      </trkpt>
      <trkpt lat="43.74743" lon="3.533">
        <ele>474</ele>
        <time>2011-04-25T12:00:26Z</time>
      </trkpt>
      <trkpt lat="43.74782" lon="3.53308">
        <ele>478</ele>
        <time>2011-04-25T12:00:46Z</time>
      </trkpt>
      <trkpt lat="43.74807" lon="3.53323">
        <ele>480</ele>
        <time>2011-04-25T12:00:58Z</time>
      </trkpt>
      <trkpt lat="43.7485" lon="3.53303">
        <ele>479</ele>
        <time>2011-04-25T12:01:18Z</time>
      </trkpt>
      <trkpt lat="43.74887" lon="3.53272">
        <ele>480</ele>
        <time>2011-04-25T12:01:26Z</time>
      </trkpt>
      <trkpt lat="43.74907" lon="3.5325">
        <ele>480</ele>
        <time>2011-04-25T12:01:33Z</time>
      </trkpt>
      <trkpt lat="43.7494" lon="3.53277">
        <ele>481</ele>
        <time>2011-04-25T12:01:47Z</time>
      </trkpt>
      <trkpt lat="43.74965" lon="3.53297">
        <ele>480</ele>
        <time>2011-04-25T12:01:56Z</time>
      </trkpt>
      <trkpt lat="43.74987" lon="3.533">
        <ele>478</ele>
        <time>2011-04-25T12:02:04Z</time>
      </trkpt>
      <trkpt lat="43.75007" lon="3.53342">
        <ele>478</ele>
        <time>2011-04-25T12:02:15Z</time>
      </trkpt>
      <trkpt lat="43.7506" lon="3.53337">
        <ele>479</ele>
        <time>2011-04-25T12:02:32Z</time>
      </trkpt>
      <trkpt lat="43.75095" lon="3.53348">
        <ele>477</ele>
        <time>2011-04-25T12:02:43Z</time>
      </trkpt>
      <trkpt lat="43.75128" lon="3.53318">
        <ele>475</ele>
        <time>2011-04-25T12:02:52Z</time>
      </trkpt>
      <trkpt lat="43.75157" lon="3.53307">
        <ele>479</ele>
        <time>2011-04-25T12:02:59Z</time>
      </trkpt>
      <trkpt lat="43.75167" lon="3.53282">
        <ele>479</ele>
        <time>2011-04-25T12:03:05Z</time>
      </trkpt>
      <trkpt lat="43.75185" lon="3.53302">
        <ele>480</ele>
        <time>2011-04-25T12:03:14Z</time>
      </trkpt>
      <trkpt lat="43.75187" lon="3.53373">
        <ele>477</ele>
        <time>2011-04-25T12:03:24Z</time>
      </trkpt>
      <trkpt lat="43.75213" lon="3.5343">
        <ele>477</ele>
        <time>2011-04-25T12:03:31Z</time>
      </trkpt>
      <trkpt lat="43.75237" lon="3.53437">
        <ele>477</ele>
        <time>2011-04-25T12:03:35Z</time>
      </trkpt>
      <trkpt lat="43.75258" lon="3.53402">
        <ele>479</ele>
        <time>2011-04-25T12:03:42Z</time>
      </trkpt>
      <trkpt lat="43.75302" lon="3.53383">
        <ele>479</ele>
        <time>2011-04-25T12:03:52Z</time>
      </trkpt>
      <trkpt lat="43.75337" lon="3.53325">
        <ele>482</ele>
        <time>2011-04-25T12:04:06Z</time>
      </trkpt>
      <trkpt lat="43.75357" lon="3.53313">
        <ele>484</ele>
        <time>2011-04-25T12:04:15Z</time>
      </trkpt>
      <trkpt lat="43.75385" lon="3.53327">
        <ele>483</ele>
        <time>2011-04-25T12:04:23Z</time>
      </trkpt>
      <trkpt lat="43.75403" lon="3.53288">
        <ele>484</ele>
        <time>2011-04-25T12:04:31Z</time>
      </trkpt>
      <trkpt lat="43.75415" lon="3.5326">
        <ele>485</ele>
        <time>2011-04-25T12:04:38Z</time>
      </trkpt>
      <trkpt lat="43.75437" lon="3.53267">
        <ele>486</ele>
        <time>2011-04-25T12:04:49Z</time>
      </trkpt>
      <trkpt lat="43.75447" lon="3.53302">
        <ele>491</ele>
        <time>2011-04-25T12:05:07Z</time>
      </trkpt>
      <trkpt lat="43.7545" lon="3.53327">
        <ele>493</ele>
        <time>2011-04-25T12:05:21Z</time>
      </trkpt>
      <trkpt lat="43.75475" lon="3.53357">
        <ele>494</ele>
        <time>2011-04-25T12:05:34Z</time>
      </trkpt>
      <trkpt lat="43.75495" lon="3.53428">
        <ele>494</ele>
        <time>2011-04-25T12:05:50Z</time>
      </trkpt>
      <trkpt lat="43.75527" lon="3.5348">
        <ele>493</ele>
        <time>2011-04-25T12:05:58Z</time>
      </trkpt>
      <trkpt lat="43.75552" lon="3.53472">
        <ele>497</ele>
        <time>2011-04-25T12:06:09Z</time>
      </trkpt>
      <trkpt lat="43.75558" lon="3.5342">
        <ele>498</ele>
        <time>2011-04-25T12:06:25Z</time>
      </trkpt>
      <trkpt lat="43.75568" lon="3.5338">
        <ele>499</ele>
        <time>2011-04-25T12:06:35Z</time>
      </trkpt>
      <trkpt lat="43.7561" lon="3.5334">
        <ele>502</ele>
        <time>2011-04-25T12:06:56Z</time>
      </trkpt>
      <trkpt lat="43.75645" lon="3.53315">
        <ele>504</ele>
        <time>2011-04-25T12:07:11Z</time>
      </trkpt>
      <trkpt lat="43.75663" lon="3.53343">
        <ele>503</ele>
        <time>2011-04-25T12:07:23Z</time>
      </trkpt>
      <trkpt lat="43.75655" lon="3.53385">
        <ele>502</ele>
        <time>2011-04-25T12:07:30Z</time>
      </trkpt>
      <trkpt lat="43.75698" lon="3.5343">
        <ele>499</ele>
        <time>2011-04-25T12:07:41Z</time>
      </trkpt>
      <trkpt lat="43.75723" lon="3.53405">
        <ele>502</ele>
        <time>2011-04-25T12:07:48Z</time>
      </trkpt>
      <trkpt lat="43.75738" lon="3.53363">
        <ele>503</ele>
        <time>2011-04-25T12:07:58Z</time>
      </trkpt>
      <trkpt lat="43.75763" lon="3.53338">
        <ele>506</ele>
        <time>2011-04-25T12:08:11Z</time>
      </trkpt>
      <trkpt lat="43.75785" lon="3.53348">
        <ele>508</ele>
        <time>2011-04-25T12:08:21Z</time>
      </trkpt>
      <trkpt lat="43.75793" lon="3.5339">
        <ele>508</ele>
        <time>2011-04-25T12:08:33Z</time>
      </trkpt>
      <trkpt lat="43.7581" lon="3.5342">
        <ele>509</ele>
        <time>2011-04-25T12:08:42Z</time>
      </trkpt>
      <trkpt lat="43.75832" lon="3.53447">
        <ele>510</ele>
        <time>2011-04-25T12:08:52Z</time>
      </trkpt>
      <trkpt lat="43.75845" lon="3.535">
        <ele>509</ele>
        <time>2011-04-25T12:09:02Z</time>
      </trkpt>
      <trkpt lat="43.75887" lon="3.5351">
        <ele>512</ele>
        <time>2011-04-25T12:09:18Z</time>
      </trkpt>
      <trkpt lat="43.75905" lon="3.53527">
        <ele>511</ele>
        <time>2011-04-25T12:09:25Z</time>
      </trkpt>
      <trkpt lat="43.75877" lon="3.5359">
        <ele>506</ele>
        <time>2011-04-25T12:09:34Z</time>
      </trkpt>
      <trkpt lat="43.7586" lon="3.53663">
        <ele>503</ele>
        <time>2011-04-25T12:09:41Z</time>
      </trkpt>
      <trkpt lat="43.75887" lon="3.53695">
        <ele>503</ele>
        <time>2011-04-25T12:09:47Z</time>
      </trkpt>
      <trkpt lat="43.75912" lon="3.53687">
        <ele>504</ele>
        <time>2011-04-25T12:09:58Z</time>
      </trkpt>
      <trkpt lat="43.7594" lon="3.53655">
        <ele>508</ele>
        <time>2011-04-25T12:14:08Z</time>
      </trkpt>
      <trkpt lat="43.75983" lon="3.53615">
        <ele>512</ele>
        <time>2011-04-25T12:14:39Z</time>
      </trkpt>
      <trkpt lat="43.76002" lon="3.53587">
        <ele>515</ele>
        <time>2011-04-25T12:14:55Z</time>
      </trkpt>
      <trkpt lat="43.76015" lon="3.53553">
        <ele>517</ele>
        <time>2011-04-25T12:15:10Z</time>
      </trkpt>
      <trkpt lat="43.76048" lon="3.53528">
        <ele>516</ele>
        <time>2011-04-25T12:15:25Z</time>
      </trkpt>
      <trkpt lat="43.76118" lon="3.5345">
        <ele>511</ele>
        <time>2011-04-25T12:15:38Z</time>
      </trkpt>
      <trkpt lat="43.76172" lon="3.53423">
        <ele>503</ele>
        <time>2011-04-25T12:15:50Z</time>
      </trkpt>
      <trkpt lat="43.76247" lon="3.53422">
        <ele>492</ele>
        <time>2011-04-25T12:16:00Z</time>
      </trkpt>
      <trkpt lat="43.76282" lon="3.53513">
        <ele>485</ele>
        <time>2011-04-25T12:16:11Z</time>
      </trkpt>
      <trkpt lat="43.76267" lon="3.53558">
        <ele>482</ele>
        <time>2011-04-25T12:16:17Z</time>
      </trkpt>
      <trkpt lat="43.76332" lon="3.53518">
        <ele>482</ele>
        <time>2011-04-25T12:16:30Z</time>
      </trkpt>
      <trkpt lat="43.76423" lon="3.53498">
        <ele>473</ele>
        <time>2011-04-25T12:16:42Z</time>
      </trkpt>
      <trkpt lat="43.76457" lon="3.53467">
        <ele>470</ele>
        <time>2011-04-25T12:16:48Z</time>
      </trkpt>
      <trkpt lat="43.76478" lon="3.53402">
        <ele>473</ele>
        <time>2011-04-25T12:17:05Z</time>
      </trkpt>
      <trkpt lat="43.76473" lon="3.53387">
        <ele>473</ele>
        <time>2011-04-25T12:17:49Z</time>
      </trkpt>
      <trkpt lat="43.76467" lon="3.53362">
        <ele>475</ele>
        <time>2011-04-25T12:19:17Z</time>
      </trkpt>
      <trkpt lat="43.76497" lon="3.53312">
        <ele>474</ele>
        <time>2011-04-25T12:19:30Z</time>
      </trkpt>
      <trkpt lat="43.76548" lon="3.53303">
        <ele>475</ele>
        <time>2011-04-25T12:19:44Z</time>
      </trkpt>
      <trkpt lat="43.7657" lon="3.53287">
        <ele>475</ele>
        <time>2011-04-25T12:19:53Z</time>
      </trkpt>
      <trkpt lat="43.76575" lon="3.53232">
        <ele>473</ele>
        <time>2011-04-25T12:20:02Z</time>
      </trkpt>
      <trkpt lat="43.76592" lon="3.5318">
        <ele>472</ele>
        <time>2011-04-25T12:20:11Z</time>
      </trkpt>
      <trkpt lat="43.7661" lon="3.53123">
        <ele>471</ele>
        <time>2011-04-25T12:20:20Z</time>
      </trkpt>
      <trkpt lat="43.76588" lon="3.53068">
        <ele>472</ele>
        <time>2011-04-25T12:20:31Z</time>
      </trkpt>
      <trkpt lat="43.76597" lon="3.53032">
        <ele>473</ele>
        <time>2011-04-25T12:20:45Z</time>
      </trkpt>
      <trkpt lat="43.76587" lon="3.5299">
        <ele>475</ele>
        <time>2011-04-25T12:20:58Z</time>
      </trkpt>
      <trkpt lat="43.76598" lon="3.52957">
        <ele>476</ele>
        <time>2011-04-25T12:21:08Z</time>
      </trkpt>
      <trkpt lat="43.7666" lon="3.52937">
        <ele>480</ele>
        <time>2011-04-25T12:21:37Z</time>
      </trkpt>
      <trkpt lat="43.76698" lon="3.52898">
        <ele>482</ele>
        <time>2011-04-25T12:21:59Z</time>
      </trkpt>
      <trkpt lat="43.76723" lon="3.52877">
        <ele>485</ele>
        <time>2011-04-25T12:22:12Z</time>
      </trkpt>
      <trkpt lat="43.7674" lon="3.52838">
        <ele>487</ele>
        <time>2011-04-25T12:22:25Z</time>
      </trkpt>
      <trkpt lat="43.76797" lon="3.52825">
        <ele>492</ele>
        <time>2011-04-25T12:22:50Z</time>
      </trkpt>
      <trkpt lat="43.76828" lon="3.52855">
        <ele>495</ele>
        <time>2011-04-25T12:23:06Z</time>
      </trkpt>
      <trkpt lat="43.76887" lon="3.52923">
        <ele>494</ele>
        <time>2011-04-25T12:23:30Z</time>
      </trkpt>
      <trkpt lat="43.76905" lon="3.5294">
        <ele>495</ele>
        <time>2011-04-25T12:24:06Z</time>
      </trkpt>
      <trkpt lat="43.76965" lon="3.52982">
        <ele>499</ele>
        <time>2011-04-25T12:25:23Z</time>
      </trkpt>
      <trkpt lat="43.77003" lon="3.52958">
        <ele>504</ele>
        <time>2011-04-25T12:25:44Z</time>
      </trkpt>
      <trkpt lat="43.77063" lon="3.52958">
        <ele>504</ele>
        <time>2011-04-25T12:26:06Z</time>
      </trkpt>
      <trkpt lat="43.7712" lon="3.52998">
        <ele>504</ele>
        <time>2011-04-25T12:26:21Z</time>
      </trkpt>
      <trkpt lat="43.7714" lon="3.53033">
        <ele>504</ele>
        <time>2011-04-25T12:26:29Z</time>
      </trkpt>
      <trkpt lat="43.77147" lon="3.53068">
        <ele>503</ele>
        <time>2011-04-25T12:26:37Z</time>
      </trkpt>
      <trkpt lat="43.77143" lon="3.53103">
        <ele>504</ele>
        <time>2011-04-25T12:26:43Z</time>
      </trkpt>
      <trkpt lat="43.77158" lon="3.53138">
        <ele>505</ele>
        <time>2011-04-25T12:26:51Z</time>
      </trkpt>
      <trkpt lat="43.77237" lon="3.53187">
        <ele>511</ele>
        <time>2011-04-25T12:27:26Z</time>
      </trkpt>
      <trkpt lat="43.77247" lon="3.53212">
        <ele>513</ele>
        <time>2011-04-25T12:28:40Z</time>
      </trkpt>
      <trkpt lat="43.77253" lon="3.53267">
        <ele>514</ele>
        <time>2011-04-25T12:28:52Z</time>
      </trkpt>
      <trkpt lat="43.7725" lon="3.53312">
        <ele>515</ele>
        <time>2011-04-25T12:29:01Z</time>
      </trkpt>
      <trkpt lat="43.77267" lon="3.5336">
        <ele>514</ele>
        <time>2011-04-25T12:29:10Z</time>
      </trkpt>
      <trkpt lat="43.7729" lon="3.53497">
        <ele>511</ele>
        <time>2011-04-25T12:29:29Z</time>
      </trkpt>
      <trkpt lat="43.773" lon="3.53542">
        <ele>511</ele>
        <time>2011-04-25T12:29:39Z</time>
      </trkpt>
      <trkpt lat="43.77308" lon="3.53567">
        <ele>509</ele>
        <time>2011-04-25T12:29:55Z</time>
      </trkpt>
      <trkpt lat="43.77312" lon="3.53602">
        <ele>508</ele>
        <time>2011-04-25T12:30:13Z</time>
      </trkpt>
      <trkpt lat="43.773" lon="3.53547">
        <ele>512</ele>
        <time>2011-04-25T12:40:14Z</time>
      </trkpt>
      <trkpt lat="43.77293" lon="3.5351">
        <ele>513</ele>
        <time>2011-04-25T12:40:23Z</time>
      </trkpt>
      <trkpt lat="43.77308" lon="3.53492">
        <ele>513</ele>
        <time>2011-04-25T12:40:32Z</time>
      </trkpt>
      <trkpt lat="43.77323" lon="3.53482">
        <ele>513</ele>
        <time>2011-04-25T12:41:31Z</time>
      </trkpt>
      <trkpt lat="43.773" lon="3.53432">
        <ele>514</ele>
        <time>2011-04-25T12:41:54Z</time>
      </trkpt>
      <trkpt lat="43.77277" lon="3.5338">
        <ele>515</ele>
        <time>2011-04-25T12:42:10Z</time>
      </trkpt>
      <trkpt lat="43.77303" lon="3.53325">
        <ele>518</ele>
        <time>2011-04-25T12:42:34Z</time>
      </trkpt>
      <trkpt lat="43.7728" lon="3.53363">
        <ele>515</ele>
        <time>2011-04-25T12:43:05Z</time>
      </trkpt>
      <trkpt lat="43.7725" lon="3.53325">
        <ele>516</ele>
        <time>2011-04-25T12:43:21Z</time>
      </trkpt>
      <trkpt lat="43.77253" lon="3.53255">
        <ele>516</ele>
        <time>2011-04-25T12:43:33Z</time>
      </trkpt>
      <trkpt lat="43.77258" lon="3.53213">
        <ele>515</ele>
        <time>2011-04-25T12:43:41Z</time>
      </trkpt>
      <trkpt lat="43.77277" lon="3.53192">
        <ele>516</ele>
        <time>2011-04-25T12:43:53Z</time>
      </trkpt>
      <trkpt lat="43.77308" lon="3.5319">
        <ele>520</ele>
        <time>2011-04-25T12:44:13Z</time>
      </trkpt>
      <trkpt lat="43.7734" lon="3.53173">
        <ele>522</ele>
        <time>2011-04-25T12:44:40Z</time>
      </trkpt>
      <trkpt lat="43.7738" lon="3.53173">
        <ele>525</ele>
        <time>2011-04-25T12:45:15Z</time>
      </trkpt>
      <trkpt lat="43.77447" lon="3.53148">
        <ele>532</ele>
        <time>2011-04-25T12:46:08Z</time>
      </trkpt>
      <trkpt lat="43.77462" lon="3.53125">
        <ele>536</ele>
        <time>2011-04-25T12:46:23Z</time>
      </trkpt>
      <trkpt lat="43.77472" lon="3.531">
        <ele>539</ele>
        <time>2011-04-25T12:46:40Z</time>
      </trkpt>
      <trkpt lat="43.77498" lon="3.53085">
        <ele>540</ele>
        <time>2011-04-25T12:47:12Z</time>
      </trkpt>
      <trkpt lat="43.77518" lon="3.53078">
        <ele>544</ele>
        <time>2011-04-25T12:47:30Z</time>
      </trkpt>
      <trkpt lat="43.77533" lon="3.53068">
        <ele>548</ele>
        <time>2011-04-25T12:47:47Z</time>
      </trkpt>
      <trkpt lat="43.77522" lon="3.5303">
        <ele>554</ele>
        <time>2011-04-25T12:48:09Z</time>
      </trkpt>
      <trkpt lat="43.77403" lon="3.5288">
        <ele>578</ele>
        <time>2011-04-25T12:49:35Z</time>
      </trkpt>
      <trkpt lat="43.774" lon="3.52843">
        <ele>583</ele>
        <time>2011-04-25T12:49:57Z</time>
      </trkpt>
      <trkpt lat="43.77303" lon="3.52772">
        <ele>593</ele>
        <time>2011-04-25T12:50:57Z</time>
      </trkpt>
      <trkpt lat="43.7728" lon="3.52743">
        <ele>597</ele>
        <time>2011-04-25T12:51:14Z</time>
      </trkpt>
      <trkpt lat="43.77245" lon="3.5268">
        <ele>603</ele>
        <time>2011-04-25T12:51:46Z</time>
      </trkpt>
      <trkpt lat="43.7724" lon="3.52643">
        <ele>608</ele>
        <time>2011-04-25T12:52:01Z</time>
      </trkpt>
      <trkpt lat="43.77245" lon="3.52563">
        <ele>609</ele>
        <time>2011-04-25T12:52:26Z</time>
      </trkpt>
      <trkpt lat="43.77217" lon="3.52535">
        <ele>613</ele>
        <time>2011-04-25T12:52:45Z</time>
      </trkpt>
      <trkpt lat="43.77203" lon="3.52505">
        <ele>615</ele>
        <time>2011-04-25T12:52:58Z</time>
      </trkpt>
      <trkpt lat="43.77198" lon="3.52467">
        <ele>618</ele>
        <time>2011-04-25T12:53:10Z</time>
      </trkpt>
      <trkpt lat="43.77182" lon="3.52445">
        <ele>621</ele>
        <time>2011-04-25T12:53:25Z</time>
      </trkpt>
      <trkpt lat="43.77157" lon="3.52432">
        <ele>624</ele>
        <time>2011-04-25T12:53:42Z</time>
      </trkpt>
      <trkpt lat="43.77112" lon="3.52403">
        <ele>630</ele>
        <time>2011-04-25T12:54:12Z</time>
      </trkpt>
      <trkpt lat="43.77067" lon="3.52352">
        <ele>637</ele>
        <time>2011-04-25T12:54:45Z</time>
      </trkpt>
      <trkpt lat="43.77052" lon="3.52315">
        <ele>637</ele>
        <time>2011-04-25T12:54:56Z</time>
      </trkpt>
      <trkpt lat="43.77047" lon="3.52265">
        <ele>635</ele>
        <time>2011-04-25T12:55:07Z</time>
      </trkpt>
      <trkpt lat="43.7705" lon="3.52218">
        <ele>634</ele>
        <time>2011-04-25T12:55:17Z</time>
      </trkpt>
      <trkpt lat="43.76948" lon="3.52148">
        <ele>643</ele>
        <time>2011-04-25T12:56:14Z</time>
      </trkpt>
      <trkpt lat="43.76915" lon="3.52097">
        <ele>646</ele>
        <time>2011-04-25T12:56:40Z</time>
      </trkpt>
      <trkpt lat="43.76903" lon="3.52057">
        <ele>650</ele>
        <time>2011-04-25T12:57:00Z</time>
      </trkpt>
      <trkpt lat="43.76893" lon="3.52035">
        <ele>655</ele>
        <time>2011-04-25T12:57:14Z</time>
      </trkpt>
      <trkpt lat="43.7685" lon="3.52025">
        <ele>658</ele>
        <time>2011-04-25T12:57:47Z</time>
      </trkpt>
      <trkpt lat="43.76795" lon="3.5199">
        <ele>665</ele>
        <time>2011-04-25T12:58:32Z</time>
      </trkpt>
      <trkpt lat="43.76745" lon="3.51957">
        <ele>666</ele>
        <time>2011-04-25T12:58:49Z</time>
      </trkpt>
      <trkpt lat="43.76652" lon="3.51892">
        <ele>671</ele>
        <time>2011-04-25T12:59:33Z</time>
      </trkpt>
      <trkpt lat="43.76607" lon="3.51833">
        <ele>671</ele>
        <time>2011-04-25T13:02:03Z</time>
      </trkpt>
      <trkpt lat="43.76582" lon="3.51793">
        <ele>668</ele>
        <time>2011-04-25T13:02:15Z</time>
      </trkpt>
      <trkpt lat="43.76575" lon="3.51757">
        <ele>668</ele>
        <time>2011-04-25T13:02:23Z</time>
      </trkpt>
      <trkpt lat="43.76537" lon="3.51713">
        <ele>671</ele>
        <time>2011-04-25T13:02:40Z</time>
      </trkpt>
      <trkpt lat="43.76478" lon="3.5163">
        <ele>669</ele>
        <time>2011-04-25T13:02:59Z</time>
      </trkpt>
      <trkpt lat="43.76467" lon="3.51575">
        <ele>672</ele>
        <time>2011-04-25T13:03:17Z</time>
      </trkpt>
      <trkpt lat="43.76468" lon="3.51542">
        <ele>674</ele>
        <time>2011-04-25T13:03:31Z</time>
      </trkpt>
      <trkpt lat="43.76478" lon="3.51517">
        <ele>676</ele>
        <time>2011-04-25T13:03:44Z</time>
      </trkpt>
      <trkpt lat="43.7647" lon="3.51487">
        <ele>679</ele>
        <time>2011-04-25T13:03:59Z</time>
      </trkpt>
      <trkpt lat="43.76453" lon="3.51465">
        <ele>683</ele>
        <time>2011-04-25T13:04:14Z</time>
      </trkpt>
      <trkpt lat="43.76412" lon="3.51302">
        <ele>692</ele>
        <time>2011-04-25T13:05:22Z</time>
      </trkpt>
      <trkpt lat="43.76393" lon="3.51268">
        <ele>695</ele>
        <time>2011-04-25T13:05:40Z</time>
      </trkpt>
      <trkpt lat="43.76383" lon="3.51242">
        <ele>699</ele>
        <time>2011-04-25T13:05:54Z</time>
      </trkpt>
      <trkpt lat="43.76347" lon="3.51208">
        <ele>708</ele>
        <time>2011-04-25T13:06:22Z</time>
      </trkpt>
      <trkpt lat="43.76252" lon="3.51182">
        <ele>711</ele>
        <time>2011-04-25T13:07:07Z</time>
      </trkpt>
      <trkpt lat="43.76232" lon="3.51157">
        <ele>713</ele>
        <time>2011-04-25T13:07:20Z</time>
      </trkpt>
      <trkpt lat="43.7623" lon="3.5105">
        <ele>714</ele>
        <time>2011-04-25T13:07:48Z</time>
      </trkpt>
      <trkpt lat="43.76218" lon="3.50992">
        <ele>722</ele>
        <time>2011-04-25T13:08:16Z</time>
      </trkpt>
      <trkpt lat="43.76213" lon="3.50942">
        <ele>727</ele>
        <time>2011-04-25T13:08:39Z</time>
      </trkpt>
      <trkpt lat="43.76203" lon="3.50912">
        <ele>730</ele>
        <time>2011-04-25T13:08:57Z</time>
      </trkpt>
      <trkpt lat="43.7619" lon="3.50888">
        <ele>732</ele>
        <time>2011-04-25T13:09:08Z</time>
      </trkpt>
      <trkpt lat="43.76185" lon="3.50807">
        <ele>736</ele>
        <time>2011-04-25T13:09:44Z</time>
      </trkpt>
      <trkpt lat="43.76165" lon="3.50728">
        <ele>741</ele>
        <time>2011-04-25T13:10:18Z</time>
      </trkpt>
      <trkpt lat="43.76145" lon="3.50687">
        <ele>744</ele>
        <time>2011-04-25T13:10:37Z</time>
      </trkpt>
      <trkpt lat="43.7605" lon="3.50577">
        <ele>757</ele>
        <time>2011-04-25T13:11:38Z</time>
      </trkpt>
      <trkpt lat="43.76033" lon="3.50543">
        <ele>760</ele>
        <time>2011-04-25T13:11:51Z</time>
      </trkpt>
      <trkpt lat="43.76003" lon="3.50442">
        <ele>768</ele>
        <time>2011-04-25T13:12:32Z</time>
      </trkpt>
      <trkpt lat="43.7594" lon="3.50372">
        <ele>766</ele>
        <time>2011-04-25T13:12:49Z</time>
      </trkpt>
      <trkpt lat="43.75932" lon="3.50335">
        <ele>769</ele>
        <time>2011-04-25T13:13:03Z</time>
      </trkpt>
      <trkpt lat="43.75913" lon="3.50293">
        <ele>771</ele>
        <time>2011-04-25T13:13:25Z</time>
      </trkpt>
      <trkpt lat="43.7589" lon="3.50265">
        <ele>768</ele>
        <time>2011-04-25T13:13:37Z</time>
      </trkpt>
      <trkpt lat="43.7587" lon="3.50263">
        <ele>766</ele>
        <time>2011-04-25T13:13:44Z</time>
      </trkpt>
      <trkpt lat="43.75842" lon="3.50242">
        <ele>763</ele>
        <time>2011-04-25T13:16:42Z</time>
      </trkpt>
      <trkpt lat="43.75792" lon="3.50217">
        <ele>758</ele>
        <time>2011-04-25T13:16:52Z</time>
      </trkpt>
      <trkpt lat="43.75735" lon="3.50182">
        <ele>751</ele>
        <time>2011-04-25T13:17:03Z</time>
      </trkpt>
      <trkpt lat="43.75653" lon="3.50187">
        <ele>752</ele>
        <time>2011-04-25T13:17:19Z</time>
      </trkpt>
      <trkpt lat="43.75642" lon="3.5011">
        <ele>748</ele>
        <time>2011-04-25T13:17:35Z</time>
      </trkpt>
      <trkpt lat="43.75648" lon="3.50073">
        <ele>746</ele>
        <time>2011-04-25T13:17:40Z</time>
      </trkpt>
      <trkpt lat="43.75588" lon="3.5008">
        <ele>741</ele>
        <time>2011-04-25T13:17:56Z</time>
      </trkpt>
      <trkpt lat="43.75457" lon="3.49992">
        <ele>738</ele>
        <time>2011-04-25T13:18:15Z</time>
      </trkpt>
      <trkpt lat="43.75427" lon="3.49992">
        <ele>740</ele>
        <time>2011-04-25T13:18:28Z</time>
      </trkpt>
      <trkpt lat="43.75402" lon="3.49983">
        <ele>742</ele>
        <time>2011-04-25T13:18:43Z</time>
      </trkpt>
      <trkpt lat="43.75382" lon="3.49972">
        <ele>743</ele>
        <time>2011-04-25T13:18:56Z</time>
      </trkpt>
      <trkpt lat="43.7534" lon="3.4995">
        <ele>746</ele>
        <time>2011-04-25T13:19:24Z</time>
      </trkpt>
      <trkpt lat="43.7532" lon="3.4997">
        <ele>748</ele>
        <time>2011-04-25T13:19:38Z</time>
      </trkpt>
      <trkpt lat="43.75293" lon="3.4998">
        <ele>752</ele>
        <time>2011-04-25T13:19:54Z</time>
      </trkpt>
      <trkpt lat="43.75273" lon="3.49975">
        <ele>755</ele>
        <time>2011-04-25T13:20:09Z</time>
      </trkpt>
      <trkpt lat="43.75255" lon="3.50003">
        <ele>754</ele>
        <time>2011-04-25T13:20:25Z</time>
      </trkpt>
      <trkpt lat="43.75172" lon="3.49963">
        <ele>761</ele>
        <time>2011-04-25T13:21:15Z</time>
      </trkpt>
      <trkpt lat="43.7514" lon="3.49952">
        <ele>762</ele>
        <time>2011-04-25T13:21:32Z</time>
      </trkpt>
      <trkpt lat="43.75118" lon="3.49935">
        <ele>763</ele>
        <time>2011-04-25T13:21:42Z</time>
      </trkpt>
      <trkpt lat="43.751" lon="3.49947">
        <ele>763</ele>
        <time>2011-04-25T13:21:52Z</time>
      </trkpt>
      <trkpt lat="43.75075" lon="3.49945">
        <ele>764</ele>
        <time>2011-04-25T13:22:02Z</time>
      </trkpt>
      <trkpt lat="43.75058" lon="3.49972">
        <ele>764</ele>
        <time>2011-04-25T13:22:12Z</time>
      </trkpt>
      <trkpt lat="43.75005" lon="3.49963">
        <ele>767</ele>
        <time>2011-04-25T13:22:33Z</time>
      </trkpt>
      <trkpt lat="43.74973" lon="3.49923">
        <ele>769</ele>
        <time>2011-04-25T13:22:54Z</time>
      </trkpt>
      <trkpt lat="43.74938" lon="3.49878">
        <ele>773</ele>
        <time>2011-04-25T13:23:18Z</time>
      </trkpt>
      <trkpt lat="43.74907" lon="3.49822">
        <ele>780</ele>
        <time>2011-04-25T13:23:52Z</time>
      </trkpt>
      <trkpt lat="43.74895" lon="3.49795">
        <ele>784</ele>
        <time>2011-04-25T13:24:05Z</time>
      </trkpt>
      <trkpt lat="43.74842" lon="3.4968">
        <ele>785</ele>
        <time>2011-04-25T13:24:51Z</time>
      </trkpt>
      <trkpt lat="43.74815" lon="3.49647">
        <ele>784</ele>
        <time>2011-04-25T13:24:59Z</time>
      </trkpt>
      <trkpt lat="43.74793" lon="3.49553">
        <ele>785</ele>
        <time>2011-04-25T13:25:18Z</time>
      </trkpt>
      <trkpt lat="43.74805" lon="3.4951">
        <ele>786</ele>
        <time>2011-04-25T13:25:29Z</time>
      </trkpt>
      <trkpt lat="43.7476" lon="3.49415">
        <ele>790</ele>
        <time>2011-04-25T13:25:58Z</time>
      </trkpt>
      <trkpt lat="43.74743" lon="3.49382">
        <ele>791</ele>
        <time>2011-04-25T13:26:06Z</time>
      </trkpt>
      <trkpt lat="43.74717" lon="3.49348">
        <ele>793</ele>
        <time>2011-04-25T13:26:19Z</time>
      </trkpt>
      <trkpt lat="43.7471" lon="3.49298">
        <ele>796</ele>
        <time>2011-04-25T13:26:41Z</time>
      </trkpt>
      <trkpt lat="43.74702" lon="3.49272">
        <ele>794</ele>
        <time>2011-04-25T13:28:07Z</time>
      </trkpt>
      <trkpt lat="43.74623" lon="3.49188">
        <ele>787</ele>
        <time>2011-04-25T13:28:53Z</time>
      </trkpt>
      <trkpt lat="43.746" lon="3.49155">
        <ele>784</ele>
        <time>2011-04-25T13:29:06Z</time>
      </trkpt>
      <trkpt lat="43.74562" lon="3.4915">
        <ele>787</ele>
        <time>2011-04-25T13:29:17Z</time>
      </trkpt>
      <trkpt lat="43.74488" lon="3.4912">
        <ele>790</ele>
        <time>2011-04-25T13:29:34Z</time>
      </trkpt>
      <trkpt lat="43.74453" lon="3.49033">
        <ele>796</ele>
        <time>2011-04-25T13:30:02Z</time>
      </trkpt>
      <trkpt lat="43.74438" lon="3.49">
        <ele>798</ele>
        <time>2011-04-25T13:30:14Z</time>
      </trkpt>
      <trkpt lat="43.74415" lon="3.48973">
        <ele>802</ele>
        <time>2011-04-25T13:30:28Z</time>
      </trkpt>
      <trkpt lat="43.74388" lon="3.48923">
        <ele>809</ele>
        <time>2011-04-25T13:30:52Z</time>
      </trkpt>
      <trkpt lat="43.74365" lon="3.48885">
        <ele>814</ele>
        <time>2011-04-25T13:31:10Z</time>
      </trkpt>
      <trkpt lat="43.74355" lon="3.4885">
        <ele>814</ele>
        <time>2011-04-25T13:32:16Z</time>
      </trkpt>
      <trkpt lat="43.74347" lon="3.48817">
        <ele>813</ele>
        <time>2011-04-25T13:33:09Z</time>
      </trkpt>
      <trkpt lat="43.74377" lon="3.48805">
        <ele>821</ele>
        <time>2011-04-25T14:07:05Z</time>
      </trkpt>
      <trkpt lat="43.74412" lon="3.48783">
        <ele>821</ele>
        <time>2011-04-25T14:07:18Z</time>
      </trkpt>
      <trkpt lat="43.7444" lon="3.48785">
        <ele>822</ele>
        <time>2011-04-25T14:07:27Z</time>
      </trkpt>
      <trkpt lat="43.74495" lon="3.48775">
        <ele>823</ele>
        <time>2011-04-25T14:07:55Z</time>
      </trkpt>
      <trkpt lat="43.74518" lon="3.48737">
        <ele>822</ele>
        <time>2011-04-25T14:08:09Z</time>
      </trkpt>
      <trkpt lat="43.74518" lon="3.487">
        <ele>823</ele>
        <time>2011-04-25T14:08:21Z</time>
      </trkpt>
      <trkpt lat="43.74503" lon="3.48665">
        <ele>825</ele>
        <time>2011-04-25T14:08:35Z</time>
      </trkpt>
      <trkpt lat="43.74477" lon="3.48638">
        <ele>827</ele>
        <time>2011-04-25T14:08:54Z</time>
      </trkpt>
      <trkpt lat="43.74457" lon="3.48628">
        <ele>828</ele>
        <time>2011-04-25T14:09:09Z</time>
      </trkpt>
      <trkpt lat="43.74452" lon="3.48597">
        <ele>828</ele>
        <time>2011-04-25T14:09:23Z</time>
      </trkpt>
      <trkpt lat="43.74438" lon="3.4857">
        <ele>827</ele>
        <time>2011-04-25T14:09:36Z</time>
      </trkpt>
      <trkpt lat="43.74385" lon="3.4857">
        <ele>831</ele>
        <time>2011-04-25T14:10:13Z</time>
      </trkpt>
      <trkpt lat="43.74357" lon="3.48593">
        <ele>828</ele>
        <time>2011-04-25T14:10:43Z</time>
      </trkpt>
      <trkpt lat="43.74343" lon="3.4858">
        <ele>813</ele>
        <time>2011-04-25T14:11:25Z</time>
      </trkpt>
      <trkpt lat="43.74312" lon="3.48557">
        <ele>809</ele>
        <time>2011-04-25T14:11:48Z</time>
      </trkpt>
      <trkpt lat="43.74278" lon="3.48532">
        <ele>806</ele>
        <time>2011-04-25T14:12:06Z</time>
      </trkpt>
      <trkpt lat="43.74258" lon="3.48492">
        <ele>809</ele>
        <time>2011-04-25T14:12:52Z</time>
      </trkpt>
      <trkpt lat="43.74248" lon="3.48463">
        <ele>809</ele>
        <time>2011-04-25T14:13:13Z</time>
      </trkpt>
      <trkpt lat="43.74238" lon="3.48445">
        <ele>811</ele>
        <time>2011-04-25T14:13:45Z</time>
      </trkpt>
      <trkpt lat="43.74215" lon="3.4845">
        <ele>813</ele>
        <time>2011-04-25T14:14:06Z</time>
      </trkpt>
      <trkpt lat="43.74198" lon="3.48453">
        <ele>815</ele>
        <time>2011-04-25T14:14:17Z</time>
      </trkpt>
      <trkpt lat="43.74185" lon="3.48435">
        <ele>811</ele>
        <time>2011-04-25T14:14:45Z</time>
      </trkpt>
      <trkpt lat="43.74172" lon="3.48423">
        <ele>804</ele>
        <time>2011-04-25T14:15:17Z</time>
      </trkpt>
      <trkpt lat="43.7415" lon="3.48398">
        <ele>789</ele>
        <time>2011-04-25T14:16:01Z</time>
      </trkpt>
      <trkpt lat="43.74135" lon="3.48383">
        <ele>786</ele>
        <time>2011-04-25T14:16:33Z</time>
      </trkpt>
      <trkpt lat="43.7412" lon="3.48373">
        <ele>778</ele>
        <time>2011-04-25T14:16:58Z</time>
      </trkpt>
      <trkpt lat="43.7411" lon="3.48355">
        <ele>774</ele>
        <time>2011-04-25T14:17:20Z</time>
      </trkpt>
      <trkpt lat="43.74097" lon="3.4834">
        <ele>771</ele>
        <time>2011-04-25T14:17:42Z</time>
      </trkpt>
      <trkpt lat="43.74077" lon="3.48323">
        <ele>765</ele>
        <time>2011-04-25T14:18:08Z</time>
      </trkpt>
      <trkpt lat="43.74062" lon="3.48302">
        <ele>765</ele>
        <time>2011-04-25T14:18:38Z</time>
      </trkpt>
      <trkpt lat="43.74038" lon="3.48275">
        <ele>764</ele>
        <time>2011-04-25T14:19:35Z</time>
      </trkpt>
      <trkpt lat="43.74037" lon="3.48242">
        <ele>760</ele>
        <time>2011-04-25T14:19:43Z</time>
      </trkpt>
      <trkpt lat="43.74032" lon="3.48218">
        <ele>757</ele>
        <time>2011-04-25T14:19:50Z</time>
      </trkpt>
      <trkpt lat="43.74005" lon="3.48222">
        <ele>753</ele>
        <time>2011-04-25T14:20:47Z</time>
      </trkpt>
      <trkpt lat="43.73993" lon="3.48273">
        <ele>747</ele>
        <time>2011-04-25T14:20:58Z</time>
      </trkpt>
      <trkpt lat="43.74007" lon="3.48372">
        <ele>741</ele>
        <time>2011-04-25T14:21:11Z</time>
      </trkpt>
      <trkpt lat="43.74057" lon="3.4848">
        <ele>731</ele>
        <time>2011-04-25T14:21:30Z</time>
      </trkpt>
      <trkpt lat="43.73945" lon="3.48397">
        <ele>709</ele>
        <time>2011-04-25T14:22:45Z</time>
      </trkpt>
      <trkpt lat="43.7383" lon="3.48255">
        <ele>688</ele>
        <time>2011-04-25T14:23:12Z</time>
      </trkpt>
      <trkpt lat="43.73742" lon="3.48178">
        <ele>670</ele>
        <time>2011-04-25T14:23:42Z</time>
      </trkpt>
      <trkpt lat="43.73703" lon="3.48158">
        <ele>665</ele>
        <time>2011-04-25T14:23:49Z</time>
      </trkpt>
      <trkpt lat="43.73658" lon="3.48123">
        <ele>660</ele>
        <time>2011-04-25T14:24:00Z</time>
      </trkpt>
      <trkpt lat="43.73637" lon="3.4811">
        <ele>654</ele>
        <time>2011-04-25T14:25:40Z</time>
      </trkpt>
      <trkpt lat="43.73645" lon="3.48198">
        <ele>646</ele>
        <time>2011-04-25T14:25:58Z</time>
      </trkpt>
      <trkpt lat="43.73668" lon="3.48262">
        <ele>641</ele>
        <time>2011-04-25T14:26:08Z</time>
      </trkpt>
      <trkpt lat="43.73718" lon="3.48327">
        <ele>634</ele>
        <time>2011-04-25T14:26:20Z</time>
      </trkpt>
      <trkpt lat="43.73765" lon="3.48483">
        <ele>619</ele>
        <time>2011-04-25T14:26:43Z</time>
      </trkpt>
      <trkpt lat="43.73785" lon="3.4863">
        <ele>606</ele>
        <time>2011-04-25T14:27:04Z</time>
      </trkpt>
      <trkpt lat="43.73808" lon="3.48673">
        <ele>603</ele>
        <time>2011-04-25T14:27:12Z</time>
      </trkpt>
      <trkpt lat="43.73765" lon="3.48652">
        <ele>596</ele>
        <time>2011-04-25T14:27:28Z</time>
      </trkpt>
      <trkpt lat="43.7373" lon="3.48593">
        <ele>589</ele>
        <time>2011-04-25T14:27:38Z</time>
      </trkpt>
      <trkpt lat="43.73722" lon="3.48653">
        <ele>582</ele>
        <time>2011-04-25T14:27:49Z</time>
      </trkpt>
      <trkpt lat="43.73758" lon="3.4874">
        <ele>575</ele>
        <time>2011-04-25T14:28:00Z</time>
      </trkpt>
      <trkpt lat="43.73785" lon="3.4881">
        <ele>569</ele>
        <time>2011-04-25T14:28:10Z</time>
      </trkpt>
      <trkpt lat="43.73708" lon="3.48918">
        <ele>550</ele>
        <time>2011-04-25T14:28:29Z</time>
      </trkpt>
      <trkpt lat="43.73687" lon="3.48998">
        <ele>543</ele>
        <time>2011-04-25T14:28:40Z</time>
      </trkpt>
      <trkpt lat="43.73697" lon="3.49062">
        <ele>537</ele>
        <time>2011-04-25T14:28:49Z</time>
      </trkpt>
      <trkpt lat="43.73708" lon="3.49087">
        <ele>534</ele>
        <time>2011-04-25T14:31:22Z</time>
      </trkpt>
      <trkpt lat="43.73642" lon="3.48955">
        <ele>522</ele>
        <time>2011-04-25T14:31:47Z</time>
      </trkpt>
      <trkpt lat="43.73628" lon="3.49042">
        <ele>513</ele>
        <time>2011-04-25T14:32:02Z</time>
      </trkpt>
      <trkpt lat="43.73703" lon="3.49332">
        <ele>473</ele>
        <time>2011-04-25T14:32:47Z</time>
      </trkpt>
      <trkpt lat="43.73742" lon="3.49377">
        <ele>472</ele>
        <time>2011-04-25T14:32:55Z</time>
      </trkpt>
      <trkpt lat="43.73682" lon="3.49353">
        <ele>459</ele>
        <time>2011-04-25T14:33:19Z</time>
      </trkpt>
      <trkpt lat="43.73665" lon="3.49328">
        <ele>458</ele>
        <time>2011-04-25T14:33:26Z</time>
      </trkpt>
      <trkpt lat="43.73643" lon="3.49285">
        <ele>452</ele>
        <time>2011-04-25T14:33:40Z</time>
      </trkpt>
      <trkpt lat="43.73597" lon="3.49232">
        <ele>441</ele>
        <time>2011-04-25T14:33:57Z</time>
      </trkpt>
      <trkpt lat="43.73567" lon="3.4918">
        <ele>435</ele>
        <time>2011-04-25T14:34:06Z</time>
      </trkpt>
      <trkpt lat="43.735" lon="3.49098">
        <ele>423</ele>
        <time>2011-04-25T14:34:24Z</time>
      </trkpt>
      <trkpt lat="43.73478" lon="3.49053">
        <ele>421</ele>
        <time>2011-04-25T14:34:34Z</time>
      </trkpt>
      <trkpt lat="43.73453" lon="3.48992">
        <ele>417</ele>
        <time>2011-04-25T14:34:51Z</time>
      </trkpt>
      <trkpt lat="43.73447" lon="3.4896">
        <ele>414</ele>
        <time>2011-04-25T14:35:03Z</time>
      </trkpt>
      <trkpt lat="43.73447" lon="3.49078">
        <ele>409</ele>
        <time>2011-04-25T14:37:37Z</time>
      </trkpt>
      <trkpt lat="43.73493" lon="3.49192">
        <ele>408</ele>
        <time>2011-04-25T14:37:52Z</time>
      </trkpt>
      <trkpt lat="43.73498" lon="3.49223">
        <ele>408</ele>
        <time>2011-04-25T14:37:58Z</time>
      </trkpt>
      <trkpt lat="43.73527" lon="3.49273">
        <ele>402</ele>
        <time>2011-04-25T14:38:38Z</time>
      </trkpt>
      <trkpt lat="43.73548" lon="3.49305">
        <ele>405</ele>
        <time>2011-04-25T14:39:01Z</time>
      </trkpt>
      <trkpt lat="43.73577" lon="3.49335">
        <ele>408</ele>
        <time>2011-04-25T14:39:21Z</time>
      </trkpt>
      <trkpt lat="43.7361" lon="3.49395">
        <ele>409</ele>
        <time>2011-04-25T14:39:52Z</time>
      </trkpt>
      <trkpt lat="43.7363" lon="3.49425">
        <ele>407</ele>
        <time>2011-04-25T14:40:06Z</time>
      </trkpt>
      <trkpt lat="43.73633" lon="3.49465">
        <ele>412</ele>
        <time>2011-04-25T14:40:19Z</time>
      </trkpt>
      <trkpt lat="43.73777" lon="3.49662">
        <ele>416</ele>
        <time>2011-04-25T14:41:47Z</time>
      </trkpt>
      <trkpt lat="43.73823" lon="3.49737">
        <ele>416</ele>
        <time>2011-04-25T14:42:20Z</time>
      </trkpt>
      <trkpt lat="43.73847" lon="3.49788">
        <ele>420</ele>
        <time>2011-04-25T14:42:39Z</time>
      </trkpt>
      <trkpt lat="43.73863" lon="3.49822">
        <ele>423</ele>
        <time>2011-04-25T14:42:51Z</time>
      </trkpt>
      <trkpt lat="43.73853" lon="3.49862">
        <ele>431</ele>
        <time>2011-04-25T14:43:05Z</time>
      </trkpt>
      <trkpt lat="43.73855" lon="3.499">
        <ele>438</ele>
        <time>2011-04-25T14:43:19Z</time>
      </trkpt>
      <trkpt lat="43.7389" lon="3.49947">
        <ele>448</ele>
        <time>2011-04-25T14:43:38Z</time>
      </trkpt>
      <trkpt lat="43.73918" lon="3.49943">
        <ele>450</ele>
        <time>2011-04-25T14:43:47Z</time>
      </trkpt>
      <trkpt lat="43.73945" lon="3.5001">
        <ele>450</ele>
        <time>2011-04-25T14:44:03Z</time>
      </trkpt>
      <trkpt lat="43.73983" lon="3.50023">
        <ele>452</ele>
        <time>2011-04-25T14:44:14Z</time>
      </trkpt>
      <trkpt lat="43.73985" lon="3.50067">
        <ele>453</ele>
        <time>2011-04-25T14:44:25Z</time>
      </trkpt>
      <trkpt lat="43.73968" lon="3.50102">
        <ele>452</ele>
        <time>2011-04-25T14:44:33Z</time>
      </trkpt>
      <trkpt lat="43.73977" lon="3.5014">
        <ele>454</ele>
        <time>2011-04-25T14:44:40Z</time>
      </trkpt>
      <trkpt lat="43.74005" lon="3.50127">
        <ele>455</ele>
        <time>2011-04-25T14:44:48Z</time>
      </trkpt>
      <trkpt lat="43.74045" lon="3.50093">
        <ele>456</ele>
        <time>2011-04-25T14:45:00Z</time>
      </trkpt>
      <trkpt lat="43.74075" lon="3.501">
        <ele>458</ele>
        <time>2011-04-25T14:45:09Z</time>
      </trkpt>
      <trkpt lat="43.741" lon="3.50153">
        <ele>458</ele>
        <time>2011-04-25T14:45:23Z</time>
      </trkpt>
      <trkpt lat="43.74123" lon="3.5018">
        <ele>459</ele>
        <time>2011-04-25T14:45:34Z</time>
      </trkpt>
      <trkpt lat="43.74133" lon="3.5021">
        <ele>456</ele>
        <time>2011-04-25T14:45:43Z</time>
      </trkpt>
      <trkpt lat="43.74123" lon="3.50272">
        <ele>460</ele>
        <time>2011-04-25T14:45:56Z</time>
      </trkpt>
      <trkpt lat="43.7412" lon="3.50357">
        <ele>453</ele>
        <time>2011-04-25T14:46:05Z</time>
      </trkpt>
      <trkpt lat="43.74092" lon="3.50445">
        <ele>446</ele>
        <time>2011-04-25T14:46:13Z</time>
      </trkpt>
      <trkpt lat="43.74102" lon="3.50538">
        <ele>441</ele>
        <time>2011-04-25T14:46:19Z</time>
      </trkpt>
      <trkpt lat="43.74092" lon="3.50622">
        <ele>438</ele>
        <time>2011-04-25T14:46:27Z</time>
      </trkpt>
      <trkpt lat="43.74057" lon="3.50703">
        <ele>437</ele>
        <time>2011-04-25T14:46:36Z</time>
      </trkpt>
      <trkpt lat="43.7402" lon="3.50765">
        <ele>439</ele>
        <time>2011-04-25T14:46:48Z</time>
      </trkpt>
      <trkpt lat="43.74003" lon="3.50798">
        <ele>437</ele>
        <time>2011-04-25T14:46:56Z</time>
      </trkpt>
      <trkpt lat="43.73968" lon="3.5083">
        <ele>437</ele>
        <time>2011-04-25T14:47:07Z</time>
      </trkpt>
      <trkpt lat="43.7392" lon="3.50845">
        <ele>437</ele>
        <time>2011-04-25T14:47:22Z</time>
      </trkpt>
      <trkpt lat="43.73883" lon="3.5086">
        <ele>435</ele>
        <time>2011-04-25T14:47:31Z</time>
      </trkpt>
      <trkpt lat="43.7386" lon="3.50855">
        <ele>435</ele>
        <time>2011-04-25T14:47:37Z</time>
      </trkpt>
      <trkpt lat="43.73833" lon="3.5089">
        <ele>437</ele>
        <time>2011-04-25T14:47:53Z</time>
      </trkpt>
      <trkpt lat="43.73803" lon="3.50918">
        <ele>442</ele>
        <time>2011-04-25T14:48:10Z</time>
      </trkpt>
      <trkpt lat="43.73787" lon="3.50943">
        <ele>443</ele>
        <time>2011-04-25T14:48:24Z</time>
      </trkpt>
      <trkpt lat="43.73767" lon="3.50947">
        <ele>446</ele>
        <time>2011-04-25T14:48:37Z</time>
      </trkpt>
      <trkpt lat="43.73752" lon="3.50978">
        <ele>449</ele>
        <time>2011-04-25T14:49:01Z</time>
      </trkpt>
      <trkpt lat="43.73728" lon="3.51025">
        <ele>454</ele>
        <time>2011-04-25T14:49:23Z</time>
      </trkpt>
      <trkpt lat="43.73702" lon="3.51087">
        <ele>458</ele>
        <time>2011-04-25T14:49:50Z</time>
      </trkpt>
      <trkpt lat="43.73702" lon="3.51123">
        <ele>460</ele>
        <time>2011-04-25T14:50:07Z</time>
      </trkpt>
      <trkpt lat="43.73677" lon="3.51157">
        <ele>467</ele>
        <time>2011-04-25T14:50:26Z</time>
      </trkpt>
      <trkpt lat="43.7365" lon="3.51213">
        <ele>468</ele>
        <time>2011-04-25T14:50:38Z</time>
      </trkpt>
      <trkpt lat="43.73607" lon="3.5128">
        <ele>470</ele>
        <time>2011-04-25T14:51:06Z</time>
      </trkpt>
      <trkpt lat="43.73598" lon="3.51322">
        <ele>466</ele>
        <time>2011-04-25T14:51:23Z</time>
      </trkpt>
      <trkpt lat="43.73602" lon="3.51357">
        <ele>466</ele>
        <time>2011-04-25T14:51:38Z</time>
      </trkpt>
      <trkpt lat="43.736" lon="3.51387">
        <ele>466</ele>
        <time>2011-04-25T14:51:53Z</time>
      </trkpt>
      <trkpt lat="43.73572" lon="3.51433">
        <ele>466</ele>
        <time>2011-04-25T14:52:26Z</time>
      </trkpt>
      <trkpt lat="43.7356" lon="3.5145">
        <ele>466</ele>
        <time>2011-04-25T14:52:38Z</time>
      </trkpt>
      <trkpt lat="43.73557" lon="3.51475">
        <ele>464</ele>
        <time>2011-04-25T14:52:49Z</time>
      </trkpt>
      <trkpt lat="43.73542" lon="3.515">
        <ele>464</ele>
        <time>2011-04-25T14:53:04Z</time>
      </trkpt>
      <trkpt lat="43.7352" lon="3.5156">
        <ele>464</ele>
        <time>2011-04-25T14:53:33Z</time>
      </trkpt>
      <trkpt lat="43.73495" lon="3.51597">
        <ele>464</ele>
        <time>2011-04-25T14:53:54Z</time>
      </trkpt>
      <trkpt lat="43.735" lon="3.5163">
        <ele>465</ele>
        <time>2011-04-25T14:54:06Z</time>
      </trkpt>
      <trkpt lat="43.73518" lon="3.51647">
        <ele>469</ele>
        <time>2011-04-25T14:54:19Z</time>
      </trkpt>
      <trkpt lat="43.73525" lon="3.51698">
        <ele>458</ele>
        <time>2011-04-25T14:54:41Z</time>
      </trkpt>
      <trkpt lat="43.7353" lon="3.51733">
        <ele>458</ele>
        <time>2011-04-25T14:54:57Z</time>
      </trkpt>
      <trkpt lat="43.7353" lon="3.5177">
        <ele>463</ele>
        <time>2011-04-25T14:55:11Z</time>
      </trkpt>
      <trkpt lat="43.73545" lon="3.51778">
        <ele>474</ele>
        <time>2011-04-25T14:55:23Z</time>
      </trkpt>
      <trkpt lat="43.73567" lon="3.5175">
        <ele>487</ele>
        <time>2011-04-25T14:55:41Z</time>
      </trkpt>
      <trkpt lat="43.73552" lon="3.51877">
        <ele>486</ele>
        <time>2011-04-25T14:56:26Z</time>
      </trkpt>
      <trkpt lat="43.73532" lon="3.51968">
        <ele>486</ele>
        <time>2011-04-25T14:56:49Z</time>
      </trkpt>
      <trkpt lat="43.73523" lon="3.52022">
        <ele>491</ele>
        <time>2011-04-25T14:56:59Z</time>
      </trkpt>
      <trkpt lat="43.73507" lon="3.5206">
        <ele>493</ele>
        <time>2011-04-25T14:57:09Z</time>
      </trkpt>
      <trkpt lat="43.73515" lon="3.52115">
        <ele>499</ele>
        <time>2011-04-25T14:57:21Z</time>
      </trkpt>
      <trkpt lat="43.73538" lon="3.52165">
        <ele>499</ele>
        <time>2011-04-25T14:57:34Z</time>
      </trkpt>
      <trkpt lat="43.73505" lon="3.52207">
        <ele>501</ele>
        <time>2011-04-25T14:57:49Z</time>
      </trkpt>
      <trkpt lat="43.73485" lon="3.52263">
        <ele>504</ele>
        <time>2011-04-25T14:58:06Z</time>
      </trkpt>
      <trkpt lat="43.73405" lon="3.52392">
        <ele>563</ele>
        <time>2011-04-25T14:58:47Z</time>
      </trkpt>
      <trkpt lat="43.73375" lon="3.52427">
        <ele>563</ele>
        <time>2011-04-25T14:59:03Z</time>
      </trkpt>
      <trkpt lat="43.73305" lon="3.52538">
        <ele>554</ele>
        <time>2011-04-25T14:59:32Z</time>
      </trkpt>
      <trkpt lat="43.73253" lon="3.52715">
        <ele>543</ele>
        <time>2011-04-25T15:00:09Z</time>
      </trkpt>
      <trkpt lat="43.73303" lon="3.52552">
        <ele>553</ele>
        <time>2011-04-25T15:04:00Z</time>
      </trkpt>
      <trkpt lat="43.7334" lon="3.52483">
        <ele>555</ele>
        <time>2011-04-25T15:04:26Z</time>
      </trkpt>
      <trkpt lat="43.73488" lon="3.5227">
        <ele>546</ele>
        <time>2011-04-25T15:05:22Z</time>
      </trkpt>
      <trkpt lat="43.73512" lon="3.52203">
        <ele>542</ele>
        <time>2011-04-25T15:05:30Z</time>
      </trkpt>
      <trkpt lat="43.73543" lon="3.5217">
        <ele>539</ele>
        <time>2011-04-25T15:05:37Z</time>
      </trkpt>
      <trkpt lat="43.73512" lon="3.52073">
        <ele>533</ele>
        <time>2011-04-25T15:05:48Z</time>
      </trkpt>
      <trkpt lat="43.73527" lon="3.52037">
        <ele>535</ele>
        <time>2011-04-25T15:06:16Z</time>
      </trkpt>
      <trkpt lat="43.7354" lon="3.51997">
        <ele>526</ele>
        <time>2011-04-25T15:06:43Z</time>
      </trkpt>
      <trkpt lat="43.73558" lon="3.51905">
        <ele>524</ele>
        <time>2011-04-25T15:07:02Z</time>
      </trkpt>
      <trkpt lat="43.73577" lon="3.51875">
        <ele>520</ele>
        <time>2011-04-25T15:07:11Z</time>
      </trkpt>
      <trkpt lat="43.7358" lon="3.5183">
        <ele>517</ele>
        <time>2011-04-25T15:07:22Z</time>
      </trkpt>
      <trkpt lat="43.73602" lon="3.51783">
        <ele>517</ele>
        <time>2011-04-25T15:07:48Z</time>
      </trkpt>
      <trkpt lat="43.73658" lon="3.51752">
        <ele>517</ele>
        <time>2011-04-25T15:08:12Z</time>
      </trkpt>
      <trkpt lat="43.73678" lon="3.51742">
        <ele>517</ele>
        <time>2011-04-25T15:08:20Z</time>
      </trkpt>
      <trkpt lat="43.73695" lon="3.51737">
        <ele>517</ele>
        <time>2011-04-25T15:08:40Z</time>
      </trkpt>
      <trkpt lat="43.73713" lon="3.51722">
        <ele>517</ele>
        <time>2011-04-25T15:08:57Z</time>
      </trkpt>
      <trkpt lat="43.73742" lon="3.51653">
        <ele>517</ele>
        <time>2011-04-25T15:09:18Z</time>
      </trkpt>
      <trkpt lat="43.73745" lon="3.51617">
        <ele>504</ele>
        <time>2011-04-25T15:09:38Z</time>
      </trkpt>
      <trkpt lat="43.7377" lon="3.51615">
        <ele>476</ele>
        <time>2011-04-25T15:10:03Z</time>
      </trkpt>
      <trkpt lat="43.73788" lon="3.51635">
        <ele>468</ele>
        <time>2011-04-25T15:10:14Z</time>
      </trkpt>
      <trkpt lat="43.73797" lon="3.5166">
        <ele>468</ele>
        <time>2011-04-25T15:10:23Z</time>
      </trkpt>
      <trkpt lat="43.73772" lon="3.5169">
        <ele>468</ele>
        <time>2011-04-25T15:10:32Z</time>
      </trkpt>
      <trkpt lat="43.73763" lon="3.51732">
        <ele>468</ele>
        <time>2011-04-25T15:10:40Z</time>
      </trkpt>
      <trkpt lat="43.73757" lon="3.51753">
        <ele>468</ele>
        <time>2011-04-25T15:13:36Z</time>
      </trkpt>
      <trkpt lat="43.73792" lon="3.51712">
        <ele>461</ele>
        <time>2011-04-25T15:13:51Z</time>
      </trkpt>
      <trkpt lat="43.73783" lon="3.51768">
        <ele>461</ele>
        <time>2011-04-25T15:14:03Z</time>
      </trkpt>
      <trkpt lat="43.73757" lon="3.51808">
        <ele>461</ele>
        <time>2011-04-25T15:14:15Z</time>
      </trkpt>
      <trkpt lat="43.73745" lon="3.51868">
        <ele>461</ele>
        <time>2011-04-25T15:14:22Z</time>
      </trkpt>
      <trkpt lat="43.73748" lon="3.51903">
        <ele>461</ele>
        <time>2011-04-25T15:14:30Z</time>
      </trkpt>
      <trkpt lat="43.73747" lon="3.51937">
        <ele>461</ele>
        <time>2011-04-25T15:14:39Z</time>
      </trkpt>
      <trkpt lat="43.73785" lon="3.5192">
        <ele>461</ele>
        <time>2011-04-25T15:14:53Z</time>
      </trkpt>
      <trkpt lat="43.73793" lon="3.51898">
        <ele>462</ele>
        <time>2011-04-25T15:15:00Z</time>
      </trkpt>
      <trkpt lat="43.73818" lon="3.5189">
        <ele>462</ele>
        <time>2011-04-25T15:15:10Z</time>
      </trkpt>
      <trkpt lat="43.73847" lon="3.51897">
        <ele>462</ele>
        <time>2011-04-25T15:15:16Z</time>
      </trkpt>
      <trkpt lat="43.739" lon="3.5191">
        <ele>411</ele>
        <time>2011-04-25T15:15:45Z</time>
      </trkpt>
      <trkpt lat="43.7396" lon="3.51952">
        <ele>405</ele>
        <time>2011-04-25T15:15:57Z</time>
      </trkpt>
      <trkpt lat="43.73967" lon="3.5199">
        <ele>401</ele>
        <time>2011-04-25T15:16:02Z</time>
      </trkpt>
      <trkpt lat="43.73953" lon="3.5202">
        <ele>405</ele>
        <time>2011-04-25T15:16:07Z</time>
      </trkpt>
      <trkpt lat="43.73945" lon="3.52088">
        <ele>404</ele>
        <time>2011-04-25T15:16:17Z</time>
      </trkpt>
      <trkpt lat="43.73957" lon="3.5218">
        <ele>392</ele>
        <time>2011-04-25T15:16:32Z</time>
      </trkpt>
      <trkpt lat="43.7394" lon="3.52228">
        <ele>380</ele>
        <time>2011-04-25T15:16:41Z</time>
      </trkpt>
      <trkpt lat="43.73937" lon="3.52268">
        <ele>380</ele>
        <time>2011-04-25T15:16:47Z</time>
      </trkpt>
      <trkpt lat="43.73927" lon="3.52335">
        <ele>378</ele>
        <time>2011-04-25T15:16:58Z</time>
      </trkpt>
      <trkpt lat="43.73928" lon="3.52355">
        <ele>368</ele>
        <time>2011-04-25T15:19:16Z</time>
      </trkpt>
      <trkpt lat="43.73928" lon="3.52395">
        <ele>368</ele>
        <time>2011-04-25T15:19:27Z</time>
      </trkpt>
      <trkpt lat="43.73937" lon="3.52423">
        <ele>364</ele>
        <time>2011-04-25T15:19:36Z</time>
      </trkpt>
      <trkpt lat="43.73938" lon="3.52465">
        <ele>361</ele>
        <time>2011-04-25T15:19:49Z</time>
      </trkpt>
      <trkpt lat="43.73935" lon="3.52495">
        <ele>357</ele>
        <time>2011-04-25T15:19:58Z</time>
      </trkpt>
      <trkpt lat="43.73945" lon="3.5254">
        <ele>355</ele>
        <time>2011-04-25T15:20:09Z</time>
      </trkpt>
      <trkpt lat="43.73922" lon="3.5256">
        <ele>351</ele>
        <time>2011-04-25T15:20:23Z</time>
      </trkpt>
      <trkpt lat="43.73947" lon="3.52607">
        <ele>346</ele>
        <time>2011-04-25T15:20:44Z</time>
      </trkpt>
      <trkpt lat="43.73952" lon="3.52635">
        <ele>338</ele>
        <time>2011-04-25T15:21:53Z</time>
      </trkpt>
      <trkpt lat="43.73963" lon="3.52683">
        <ele>336</ele>
        <time>2011-04-25T15:26:44Z</time>
      </trkpt>
      <trkpt lat="43.7397" lon="3.52717">
        <ele>336</ele>
        <time>2011-04-25T15:26:55Z</time>
      </trkpt>
      <trkpt lat="43.73973" lon="3.52778">
        <ele>340</ele>
        <time>2011-04-25T15:27:18Z</time>
      </trkpt>
      <trkpt lat="43.7396" lon="3.52805">
        <ele>340</ele>
        <time>2011-04-25T15:27:32Z</time>
      </trkpt>
      <trkpt lat="43.73957" lon="3.52842">
        <ele>337</ele>
        <time>2011-04-25T15:27:49Z</time>
      </trkpt>
      <trkpt lat="43.73942" lon="3.52942">
        <ele>335</ele>
        <time>2011-04-25T15:28:24Z</time>
      </trkpt>
      <trkpt lat="43.73942" lon="3.52982">
        <ele>335</ele>
        <time>2011-04-25T15:28:39Z</time>
      </trkpt>
      <trkpt lat="43.73933" lon="3.53017">
        <ele>333</ele>
        <time>2011-04-25T15:28:53Z</time>
      </trkpt>
      <trkpt lat="43.73898" lon="3.53035">
        <ele>341</ele>
        <time>2011-04-25T15:29:18Z</time>
      </trkpt>
      <trkpt lat="43.73855" lon="3.53033">
        <ele>345</ele>
        <time>2011-04-25T15:29:56Z</time>
      </trkpt>
      <trkpt lat="43.73833" lon="3.53023">
        <ele>350</ele>
        <time>2011-04-25T15:30:37Z</time>
      </trkpt>
      <trkpt lat="43.73833" lon="3.52997">
        <ele>332</ele>
        <time>2011-04-25T15:30:58Z</time>
      </trkpt>
      <trkpt lat="43.73798" lon="3.52973">
        <ele>339</ele>
        <time>2011-04-25T15:31:24Z</time>
      </trkpt>
      <trkpt lat="43.73775" lon="3.52967">
        <ele>334</ele>
        <time>2011-04-25T15:31:48Z</time>
      </trkpt>
      <trkpt lat="43.73787" lon="3.5299">
        <ele>322</ele>
        <time>2011-04-25T15:31:59Z</time>
      </trkpt>
      <trkpt lat="43.73757" lon="3.53115">
        <ele>322</ele>
        <time>2011-04-25T15:36:54Z</time>
      </trkpt>
      <trkpt lat="43.73783" lon="3.53047">
        <ele>322</ele>
        <time>2011-04-25T15:37:00Z</time>
      </trkpt>
      <trkpt lat="43.73802" lon="3.52965">
        <ele>322</ele>
        <time>2011-04-25T15:39:04Z</time>
      </trkpt>
      <trkpt lat="43.73817" lon="3.52975">
        <ele>322</ele>
        <time>2011-04-25T15:39:18Z</time>
      </trkpt>
      <trkpt lat="43.73802" lon="3.52985">
        <ele>322</ele>
        <time>2011-04-25T15:39:33Z</time>
      </trkpt>
      <trkpt lat="43.73818" lon="3.53018">
        <ele>323</ele>
        <time>2011-04-25T15:39:49Z</time>
      </trkpt>
      <trkpt lat="43.73788" lon="3.53005">
        <ele>312</ele>
        <time>2011-04-25T15:40:01Z</time>
      </trkpt>
      <trkpt lat="43.73762" lon="3.53043">
        <ele>311</ele>
        <time>2011-04-25T15:40:10Z</time>
      </trkpt>
      <trkpt lat="43.73727" lon="3.53062">
        <ele>309</ele>
        <time>2011-04-25T15:40:19Z</time>
      </trkpt>
      <trkpt lat="43.73702" lon="3.5308">
        <ele>310</ele>
        <time>2011-04-25T15:40:28Z</time>
      </trkpt>
      <trkpt lat="43.73683" lon="3.53112">
        <ele>308</ele>
        <time>2011-04-25T15:40:36Z</time>
      </trkpt>
      <trkpt lat="43.73655" lon="3.53172">
        <ele>305</ele>
        <time>2011-04-25T15:40:48Z</time>
      </trkpt>
      <trkpt lat="43.7365" lon="3.53265">
        <ele>305</ele>
        <time>2011-04-25T15:40:59Z</time>
      </trkpt>
      <trkpt lat="43.7363" lon="3.53348">
        <ele>305</ele>
        <time>2011-04-25T15:41:09Z</time>
      </trkpt>
      <trkpt lat="43.73623" lon="3.53387">
        <ele>305</ele>
        <time>2011-04-25T15:41:15Z</time>
      </trkpt>
      <trkpt lat="43.73628" lon="3.53432">
        <ele>305</ele>
        <time>2011-04-25T15:41:24Z</time>
      </trkpt>
      <trkpt lat="43.73625" lon="3.53483">
        <ele>305</ele>
        <time>2011-04-25T15:41:33Z</time>
      </trkpt>
      <trkpt lat="43.73632" lon="3.53548">
        <ele>305</ele>
        <time>2011-04-25T15:41:43Z</time>
      </trkpt>
      <trkpt lat="43.73645" lon="3.53582">
        <ele>305</ele>
        <time>2011-04-25T15:41:49Z</time>
      </trkpt>
      <trkpt lat="43.73647" lon="3.5363">
        <ele>305</ele>
        <time>2011-04-25T15:41:58Z</time>
      </trkpt>
      <trkpt lat="43.73663" lon="3.53688">
        <ele>305</ele>
        <time>2011-04-25T15:42:09Z</time>
      </trkpt>
      <trkpt lat="43.73692" lon="3.53812">
        <ele>305</ele>
        <time>2011-04-25T15:42:29Z</time>
      </trkpt>
      <trkpt lat="43.73673" lon="3.53867">
        <ele>294</ele>
        <time>2011-04-25T15:42:44Z</time>
      </trkpt>
      <trkpt lat="43.73647" lon="3.53918">
        <ele>288</ele>
        <time>2011-04-25T15:42:54Z</time>
      </trkpt>
      <trkpt lat="43.73613" lon="3.53957">
        <ele>267</ele>
        <time>2011-04-25T15:43:04Z</time>
      </trkpt>
      <trkpt lat="43.73545" lon="3.53978">
        <ele>250</ele>
        <time>2011-04-25T15:43:31Z</time>
      </trkpt>
      <trkpt lat="43.73527" lon="3.53988">
        <ele>248</ele>
        <time>2011-04-25T15:43:38Z</time>
      </trkpt>
      <trkpt lat="43.73547" lon="3.5401">
        <ele>248</ele>
        <time>2011-04-25T15:43:50Z</time>
      </trkpt>
      <trkpt lat="43.73557" lon="3.54045">
        <ele>247</ele>
        <time>2011-04-25T15:44:02Z</time>
      </trkpt>
      <trkpt lat="43.73567" lon="3.54087">
        <ele>247</ele>
        <time>2011-04-25T15:44:14Z</time>
      </trkpt>
      <trkpt lat="43.73585" lon="3.54112">
        <ele>246</ele>
        <time>2011-04-25T15:44:25Z</time>
      </trkpt>
      <trkpt lat="43.73602" lon="3.54138">
        <ele>241</ele>
        <time>2011-04-25T15:44:35Z</time>
      </trkpt>
      <trkpt lat="43.73638" lon="3.542">
        <ele>237</ele>
        <time>2011-04-25T15:44:49Z</time>
      </trkpt>
      <trkpt lat="43.73638" lon="3.54238">
        <ele>227</ele>
        <time>2011-04-25T15:45:16Z</time>
      </trkpt>
      <trkpt lat="43.7364" lon="3.54208">
        <ele>223</ele>
        <time>2011-04-25T15:46:00Z</time>
      </trkpt>
      <trkpt lat="43.73643" lon="3.54158">
        <ele>215</ele>
        <time>2011-04-25T15:46:12Z</time>
      </trkpt>
      <trkpt lat="43.73655" lon="3.54183">
        <ele>202</ele>
        <time>2011-04-25T15:46:46Z</time>
      </trkpt>
      <trkpt lat="43.73662" lon="3.5424">
        <ele>193</ele>
        <time>2011-04-25T15:46:58Z</time>
      </trkpt>
      <trkpt lat="43.73647" lon="3.54293">
        <ele>185</ele>
        <time>2011-04-25T15:47:08Z</time>
      </trkpt>
      <trkpt lat="43.73612" lon="3.54422">
        <ele>182</ele>
        <time>2011-04-25T15:47:31Z</time>
      </trkpt>
      <trkpt lat="43.73613" lon="3.54448">
        <ele>179</ele>
        <time>2011-04-25T15:47:35Z</time>
      </trkpt>
      <trkpt lat="43.73643" lon="3.54405">
        <ele>166</ele>
        <time>2011-04-25T15:47:50Z</time>
      </trkpt>
      <trkpt lat="43.73638" lon="3.545">
        <ele>149</ele>
        <time>2011-04-25T15:48:10Z</time>
      </trkpt>
      <trkpt lat="43.73675" lon="3.54617">
        <ele>149</ele>
        <time>2011-04-25T15:48:32Z</time>
      </trkpt>
      <trkpt lat="43.73695" lon="3.54637">
        <ele>145</ele>
        <time>2011-04-25T15:48:39Z</time>
      </trkpt>
      <trkpt lat="43.73685" lon="3.54698">
        <ele>132</ele>
        <time>2011-04-25T15:48:56Z</time>
      </trkpt>
      <trkpt lat="43.73682" lon="3.54748">
        <ele>134</ele>
        <time>2011-04-25T15:49:03Z</time>
      </trkpt>
      <trkpt lat="43.73653" lon="3.54787">
        <ele>134</ele>
        <time>2011-04-25T15:49:11Z</time>
      </trkpt>
      <trkpt lat="43.7362" lon="3.54785">
        <ele>134</ele>
        <time>2011-04-25T15:49:22Z</time>
      </trkpt>
      <trkpt lat="43.7358" lon="3.54793">
        <ele>131</ele>
        <time>2011-04-25T15:49:30Z</time>
      </trkpt>
      <trkpt lat="43.73542" lon="3.54805">
        <ele>124</ele>
        <time>2011-04-25T15:49:42Z</time>
      </trkpt>
      <trkpt lat="43.73523" lon="3.54805">
        <ele>122</ele>
        <time>2011-04-25T15:49:54Z</time>
      </trkpt>
      <trkpt lat="43.73528" lon="3.54788">
        <ele>112</ele>
        <time>2011-04-25T15:50:10Z</time>
      </trkpt>
      <trkpt lat="43.73523" lon="3.5476">
        <ele>98</ele>
        <time>2011-04-25T15:50:24Z</time>
      </trkpt>
      <trkpt lat="43.73487" lon="3.54758">
        <ele>100</ele>
        <time>2011-04-25T15:50:38Z</time>
      </trkpt>
      <trkpt lat="43.73473" lon="3.5477">
        <ele>99</ele>
        <time>2011-04-25T15:50:47Z</time>
      </trkpt>
      <trkpt lat="43.73455" lon="3.54785">
        <ele>99</ele>
        <time>2011-04-25T15:50:56Z</time>
      </trkpt>
      <trkpt lat="43.73455" lon="3.54768">
        <ele>96</ele>
        <time>2011-04-25T15:52:26Z</time>
      </trkpt>
    </trkseg>
  </trk>
</gpx>